sensor_id;sensor_type;location;lat;lon;timestamp;pressure;altitude;pressure_sealevel;temperature;humidity
20897;BME280;10608;42.600;23.398;2023-08-07T00:00:08;81986.03;;;-138.15;67.31
20897;BME280;10608;42.600;23.398;2023-08-07T00:02:36;81964.16;;;-138.15;68.50
20897;BME280;10608;42.600;23.398;2023-08-07T00:05:01;82013.84;;;-138.15;69.18
20897;BME280;10608;42.600;23.398;2023-08-07T00:07:27;82025.75;;;-138.15;70.15
20897;BME280;10608;42.600;23.398;2023-08-07T00:09:52;82047.63;;;-138.15;70.36
20897;BME280;10608;42.600;23.398;2023-08-07T00:12:17;82033.72;;;-138.15;71.16
20897;BME280;10608;42.600;23.398;2023-08-07T00:14:43;82081.41;;;-138.15;71.56
20897;BME280;10608;42.600;23.398;2023-08-07T00:17:08;82033.72;;;-138.15;72.18
20897;BME280;10608;42.600;23.398;2023-08-07T00:19:34;82091.34;;;-138.15;73.30
20897;BME280;10608;42.600;23.398;2023-08-07T00:21:59;82029.75;;;-138.15;73.22
20897;BME280;10608;42.600;23.398;2023-08-07T00:24:25;82081.41;;;-138.15;74.06
20897;BME280;10608;42.600;23.398;2023-08-07T00:26:50;82105.25;;;-138.15;74.21
20897;BME280;10608;42.600;23.398;2023-08-07T00:29:15;82073.44;;;-138.15;74.43
20897;BME280;10608;42.600;23.398;2023-08-07T00:31:41;82063.50;;;-138.15;74.44
20897;BME280;10608;42.600;23.398;2023-08-07T00:34:06;82077.44;;;-138.15;74.99
20897;BME280;10608;42.600;23.398;2023-08-07T00:36:32;82085.38;;;-138.15;75.27
20897;BME280;10608;42.600;23.398;2023-08-07T00:39:00;82101.25;;;-138.15;75.56
20897;BME280;10608;42.600;23.398;2023-08-07T00:41:26;82143.00;;;-138.15;75.86
20897;BME280;10608;42.600;23.398;2023-08-07T00:43:51;82144.97;;;-138.15;75.55
20897;BME280;10608;42.600;23.398;2023-08-07T00:46:17;82166.84;;;-138.15;75.80
20897;BME280;10608;42.600;23.398;2023-08-07T00:48:44;82174.78;;;-138.15;76.27
20897;BME280;10608;42.600;23.398;2023-08-07T00:51:09;82079.41;;;-138.15;76.67
20897;BME280;10608;42.600;23.398;2023-08-07T00:53:38;82202.59;;;-138.15;76.77
20897;BME280;10608;42.600;23.398;2023-08-07T00:56:04;82146.97;;;-138.15;75.85
20897;BME280;10608;42.600;23.398;2023-08-07T00:58:29;82152.94;;;-138.15;75.25
20897;BME280;10608;42.600;23.398;2023-08-07T01:00:55;82220.50;;;-138.15;76.56
20897;BME280;10608;42.600;23.398;2023-08-07T01:03:21;82234.41;;;-138.15;77.15
20897;BME280;10608;42.600;23.398;2023-08-07T01:05:46;82206.59;;;-138.15;77.22
20897;BME280;10608;42.600;23.398;2023-08-07T01:08:12;82218.50;;;-138.15;77.35
20897;BME280;10608;42.600;23.398;2023-08-07T01:13:47;82256.25;;;-138.15;79.06
20897;BME280;10608;42.600;23.398;2023-08-07T01:16:22;82220.50;;;-138.15;79.17
20897;BME280;10608;42.600;23.398;2023-08-07T01:18:51;82252.28;;;-138.15;78.97
20897;BME280;10608;42.600;23.398;2023-08-07T01:21:19;82260.22;;;-138.15;79.23
20897;BME280;10608;42.600;23.398;2023-08-07T01:23:46;82248.31;;;-138.15;79.58
20897;BME280;10608;42.600;23.398;2023-08-07T01:26:13;82260.22;;;-138.15;79.06
20897;BME280;10608;42.600;23.398;2023-08-07T01:28:44;82290.03;;;-138.15;79.68
20897;BME280;10608;42.600;23.398;2023-08-07T01:31:14;82307.94;;;-138.15;79.62
20897;BME280;10608;42.600;23.398;2023-08-07T01:33:49;82296.00;;;-138.15;79.55
20897;BME280;10608;42.600;23.398;2023-08-07T01:36:16;82307.94;;;-138.15;79.47
20897;BME280;10608;42.600;23.398;2023-08-07T01:38:42;82276.13;;;-138.15;78.99
20897;BME280;10608;42.600;23.398;2023-08-07T01:41:09;82359.59;;;-138.15;79.55
20897;BME280;10608;42.600;23.398;2023-08-07T01:43:34;82319.84;;;-138.15;79.28
20897;BME280;10608;42.600;23.398;2023-08-07T01:46:00;82395.34;;;-138.15;79.64
20897;BME280;10608;42.600;23.398;2023-08-07T01:48:25;82417.22;;;-138.15;81.14
20897;BME280;10608;42.600;23.398;2023-08-07T01:50:52;82385.41;;;-138.15;81.74
20897;BME280;10608;42.600;23.398;2023-08-07T01:53:17;82379.47;;;-138.15;81.50
20897;BME280;10608;42.600;23.398;2023-08-07T01:55:43;82383.44;;;-138.15;82.09
20897;BME280;10608;42.600;23.398;2023-08-07T01:58:08;82405.28;;;-138.15;81.60
20897;BME280;10608;42.600;23.398;2023-08-07T02:00:34;82359.59;;;-138.15;81.72
20897;BME280;10608;42.600;23.398;2023-08-07T02:02:59;82375.50;;;-138.15;82.04
20897;BME280;10608;42.600;23.398;2023-08-07T02:05:24;82399.34;;;-138.15;81.81
20897;BME280;10608;42.600;23.398;2023-08-07T02:07:50;82351.63;;;-138.15;82.02
20897;BME280;10608;42.600;23.398;2023-08-07T02:10:15;82387.41;;;-138.15;81.70
20897;BME280;10608;42.600;23.398;2023-08-07T02:12:40;82365.56;;;-138.15;81.53
20897;BME280;10608;42.600;23.398;2023-08-07T02:15:06;82387.41;;;-138.15;81.46
20897;BME280;10608;42.600;23.398;2023-08-07T02:17:32;82405.28;;;-138.15;80.81
20897;BME280;10608;42.600;23.398;2023-08-07T02:19:58;82431.13;;;-138.15;81.43
20897;BME280;10608;42.600;23.398;2023-08-07T02:22:24;82496.72;;;-138.15;82.00
20897;BME280;10608;42.600;23.398;2023-08-07T02:24:49;82454.97;;;-138.15;82.00
20897;BME280;10608;42.600;23.398;2023-08-07T02:27:15;82480.81;;;-138.15;82.03
20897;BME280;10608;42.600;23.398;2023-08-07T02:29:40;82490.75;;;-138.15;82.61
20897;BME280;10608;42.600;23.398;2023-08-07T02:32:06;82486.78;;;-138.15;83.11
20897;BME280;10608;42.600;23.398;2023-08-07T02:34:31;82494.72;;;-138.15;82.45
20897;BME280;10608;42.600;23.398;2023-08-07T02:36:57;82488.75;;;-138.15;82.76
20897;BME280;10608;42.600;23.398;2023-08-07T02:39:23;82498.69;;;-138.15;83.00
20897;BME280;10608;42.600;23.398;2023-08-07T02:41:48;82470.88;;;-138.15;82.98
20897;BME280;10608;42.600;23.398;2023-08-07T02:44:14;82478.81;;;-138.15;83.06
20897;BME280;10608;42.600;23.398;2023-08-07T02:46:39;82480.81;;;-138.15;83.33
20897;BME280;10608;42.600;23.398;2023-08-07T02:49:04;82518.56;;;-138.15;83.57
20897;BME280;10608;42.600;23.398;2023-08-07T02:51:30;82470.88;;;-138.15;84.40
20897;BME280;10608;42.600;23.398;2023-08-07T02:53:56;82431.13;;;-138.15;83.37
20897;BME280;10608;42.600;23.398;2023-08-07T02:56:21;82447.03;;;-138.15;82.72
20897;BME280;10608;42.600;23.398;2023-08-07T02:58:46;82458.94;;;-138.15;82.39
20897;BME280;10608;42.600;23.398;2023-08-07T03:01:12;82458.94;;;-138.15;82.59
20897;BME280;10608;42.600;23.398;2023-08-07T03:03:38;82447.03;;;-138.15;83.10
20897;BME280;10608;42.600;23.398;2023-08-07T03:06:03;82391.38;;;-138.15;82.87
20897;BME280;10608;42.600;23.398;2023-08-07T03:08:29;82403.31;;;-138.15;82.70
20897;BME280;10608;42.600;23.398;2023-08-07T03:10:56;82383.44;;;-138.15;82.02
20897;BME280;10608;42.600;23.398;2023-08-07T03:13:22;82395.34;;;-138.15;81.35
20897;BME280;10608;42.600;23.398;2023-08-07T03:15:48;82298.00;;;-138.15;80.87
20897;BME280;10608;42.600;23.398;2023-08-07T03:18:18;82323.81;;;-138.15;81.53
20897;BME280;10608;42.600;23.398;2023-08-07T03:20:44;82323.81;;;-138.15;80.39
20897;BME280;10608;42.600;23.398;2023-08-07T03:23:10;82327.78;;;-138.15;81.31
20897;BME280;10608;42.600;23.398;2023-08-07T03:25:36;82321.84;;;-138.15;82.04
20897;BME280;10608;42.600;23.398;2023-08-07T03:28:01;82268.19;;;-138.15;81.55
20897;BME280;10608;42.600;23.398;2023-08-07T03:30:27;82288.06;;;-138.15;79.80
20897;BME280;10608;42.600;23.398;2023-08-07T03:32:52;82286.06;;;-138.15;78.45
20897;BME280;10608;42.600;23.398;2023-08-07T03:35:18;82309.91;;;-138.15;77.27
20897;BME280;10608;42.600;23.398;2023-08-07T03:37:43;82286.06;;;-138.15;78.65
20897;BME280;10608;42.600;23.398;2023-08-07T03:40:09;82248.31;;;-138.15;80.33
20897;BME280;10608;42.600;23.398;2023-08-07T03:42:34;82252.28;;;-138.15;80.29
20897;BME280;10608;42.600;23.398;2023-08-07T03:45:00;82260.22;;;-138.15;80.16
20897;BME280;10608;42.600;23.398;2023-08-07T03:47:25;82264.22;;;-138.15;79.89
20897;BME280;10608;42.600;23.398;2023-08-07T03:49:50;82208.56;;;-138.15;79.77
20897;BME280;10608;42.600;23.398;2023-08-07T03:52:16;82206.59;;;-138.15;79.49
20897;BME280;10608;42.600;23.398;2023-08-07T03:54:43;82210.56;;;-138.15;79.62
20897;BME280;10608;42.600;23.398;2023-08-07T03:57:08;82139.03;;;-138.15;78.15
20897;BME280;10608;42.600;23.398;2023-08-07T03:59:35;82152.94;;;-138.15;76.33
20897;BME280;10608;42.600;23.398;2023-08-07T04:02:00;82141.00;;;-138.15;74.78
20897;BME280;10608;42.600;23.398;2023-08-07T04:04:26;82150.94;;;-138.15;73.57
20897;BME280;10608;42.600;23.398;2023-08-07T04:06:51;82105.25;;;-138.15;74.21
20897;BME280;10608;42.600;23.398;2023-08-07T04:09:16;82073.44;;;-138.15;73.27
20897;BME280;10608;42.600;23.398;2023-08-07T04:11:42;82093.31;;;-138.15;72.96
20897;BME280;10608;42.600;23.398;2023-08-07T04:14:07;82073.44;;;-138.15;72.68
20897;BME280;10608;42.600;23.398;2023-08-07T04:16:33;82087.34;;;-138.15;72.62
20897;BME280;10608;42.600;23.398;2023-08-07T04:18:58;82041.66;;;-138.15;72.34
20897;BME280;10608;42.600;23.398;2023-08-07T04:21:23;82051.59;;;-138.15;70.52
20897;BME280;10608;42.600;23.398;2023-08-07T04:23:49;81962.19;;;-138.15;70.10
20897;BME280;10608;42.600;23.398;2023-08-07T04:26:14;81938.34;;;-138.15;69.32
20897;BME280;10608;42.600;23.398;2023-08-07T04:28:40;81823.09;;;-138.15;68.24
20897;BME280;10608;42.600;23.398;2023-08-07T04:31:06;81839.00;;;-138.15;67.32
20897;BME280;10608;42.600;23.398;2023-08-07T04:33:31;81870.78;;;-138.15;65.37
20897;BME280;10608;42.600;23.398;2023-08-07T04:35:56;81888.66;;;-138.15;66.20
20897;BME280;10608;42.600;23.398;2023-08-07T04:38:22;81858.84;;;-138.15;65.84
20897;BME280;10608;42.600;23.398;2023-08-07T04:40:49;81825.09;;;-138.15;65.27
20897;BME280;10608;42.600;23.398;2023-08-07T04:43:16;81839.00;;;-138.15;65.12
20897;BME280;10608;42.600;23.398;2023-08-07T04:45:42;81771.44;;;-138.15;64.08
20897;BME280;10608;42.600;23.398;2023-08-07T04:48:10;81815.16;;;-138.15;64.91
20897;BME280;10608;42.600;23.398;2023-08-07T04:50:37;81825.09;;;-138.15;64.96
20897;BME280;10608;42.600;23.398;2023-08-07T04:53:03;81823.09;;;-138.15;64.26
20897;BME280;10608;42.600;23.398;2023-08-07T04:55:30;81870.78;;;-138.15;62.70
20897;BME280;10608;42.600;23.398;2023-08-07T04:57:55;81793.28;;;-138.15;63.37
20897;BME280;10608;42.600;23.398;2023-08-07T05:00:22;81771.44;;;-138.15;62.29
20897;BME280;10608;42.600;23.398;2023-08-07T05:02:47;81757.53;;;-138.15;61.08
20897;BME280;10608;42.600;23.398;2023-08-07T05:05:16;81711.81;;;-138.15;60.82
20897;BME280;10608;42.600;23.398;2023-08-07T05:07:41;81703.88;;;-138.15;59.78
20897;BME280;10608;42.600;23.398;2023-08-07T05:10:08;81723.75;;;-138.15;59.19
20897;BME280;10608;42.600;23.398;2023-08-07T05:12:33;81678.06;;;-138.15;59.09
20897;BME280;10608;42.600;23.398;2023-08-07T05:14:59;81467.47;;;-138.15;56.78
20897;BME280;10608;42.600;23.398;2023-08-07T05:17:24;80869.50;;;-138.15;49.09
20897;BME280;10608;42.600;23.398;2023-08-07T05:19:50;80142.53;;;-138.15;42.29
20897;BME280;10608;42.600;23.398;2023-08-07T05:22:15;79511.00;;;-138.15;38.18
20897;BME280;10608;42.600;23.398;2023-08-07T05:24:41;78689.00;;;-138.15;32.59
20897;BME280;10608;42.600;23.398;2023-08-07T05:27:08;78125.19;;;-138.15;30.24
20897;BME280;10608;42.600;23.398;2023-08-07T05:29:34;77396.75;;;-138.15;28.25
20897;BME280;10608;42.600;23.398;2023-08-07T05:31:59;77579.34;;;-138.15;27.87
20897;BME280;10608;42.600;23.398;2023-08-07T05:34:25;77617.06;;;-138.15;27.22
20897;BME280;10608;42.600;23.398;2023-08-07T05:36:51;77750.03;;;-138.15;28.01
20897;BME280;10608;42.600;23.398;2023-08-07T05:39:16;77640.88;;;-138.15;27.42
20897;BME280;10608;42.600;23.398;2023-08-07T05:41:41;77120.88;;;-138.15;26.70
20897;BME280;10608;42.600;23.398;2023-08-07T05:44:07;76926.41;;;-138.15;25.95
20897;BME280;10608;42.600;23.398;2023-08-07T05:46:32;77632.94;;;-138.15;26.92
20897;BME280;10608;42.600;23.398;2023-08-07T05:48:57;78214.53;;;-138.15;28.12
20897;BME280;10608;42.600;23.398;2023-08-07T05:51:23;78282.03;;;-138.15;29.27
20897;BME280;10608;42.600;23.398;2023-08-07T05:53:48;78014.03;;;-138.15;28.69
20897;BME280;10608;42.600;23.398;2023-08-07T05:56:14;77492.03;;;-138.15;27.18
20897;BME280;10608;42.600;23.398;2023-08-07T05:58:39;77513.84;;;-138.15;26.86
20897;BME280;10608;42.600;23.398;2023-08-07T06:01:05;77914.78;;;-138.15;27.87
20897;BME280;10608;42.600;23.398;2023-08-07T06:03:30;78135.13;;;-138.15;28.58
20897;BME280;10608;42.600;23.398;2023-08-07T06:05:56;78240.34;;;-138.15;28.79
20897;BME280;10608;42.600;23.398;2023-08-07T06:08:21;78377.31;;;-138.15;29.42
20897;BME280;10608;42.600;23.398;2023-08-07T06:10:47;78057.72;;;-138.15;28.86
20897;BME280;10608;42.600;23.398;2023-08-07T06:13:12;77982.28;;;-138.15;28.51
20897;BME280;10608;42.600;23.398;2023-08-07T06:15:37;77962.44;;;-138.15;28.12
20897;BME280;10608;42.600;23.398;2023-08-07T06:18:03;77934.66;;;-138.15;26.99
20897;BME280;10608;42.600;23.398;2023-08-07T06:20:28;77525.75;;;-138.15;27.38
20897;BME280;10608;42.600;23.398;2023-08-07T06:22:53;77164.53;;;-138.15;26.01
20897;BME280;10608;42.600;23.398;2023-08-07T06:25:19;76704.16;;;-138.15;24.15
20897;BME280;10608;42.600;23.398;2023-08-07T06:27:45;76557.31;;;-138.15;24.00
20897;BME280;10608;42.600;23.398;2023-08-07T06:30:11;76108.88;;;-138.15;23.85
20897;BME280;10608;42.600;23.398;2023-08-07T06:32:36;75795.41;;;-138.15;23.50
20897;BME280;10608;42.600;23.398;2023-08-07T06:35:03;75374.84;;;-138.15;22.74
20897;BME280;10608;42.600;23.398;2023-08-07T06:37:29;74892.84;;;-138.15;21.74
20897;BME280;10608;42.600;23.398;2023-08-07T06:39:55;74373.22;;;-138.15;20.26
20897;BME280;10608;42.600;23.398;2023-08-07T06:42:20;74244.31;;;-138.15;20.29
20897;BME280;10608;42.600;23.398;2023-08-07T06:44:46;73982.53;;;-138.15;20.26
20897;BME280;10608;42.600;23.398;2023-08-07T06:47:12;73641.47;;;-138.15;19.44
20897;BME280;10608;42.600;23.398;2023-08-07T06:49:37;73153.72;;;-138.15;18.46
20897;BME280;10608;42.600;23.398;2023-08-07T06:52:03;73248.88;;;-138.15;18.71
20897;BME280;10608;42.600;23.398;2023-08-07T06:54:29;73072.44;;;-138.15;19.38
20897;BME280;10608;42.600;23.398;2023-08-07T06:56:54;72985.22;;;-138.15;18.46
20897;BME280;10608;42.600;23.398;2023-08-07T06:59:19;72620.44;;;-138.15;18.31
20897;BME280;10608;42.600;23.398;2023-08-07T07:01:45;72432.13;;;-138.15;17.93
20897;BME280;10608;42.600;23.398;2023-08-07T07:04:10;72574.84;;;-138.15;18.32
20897;BME280;10608;42.600;23.398;2023-08-07T07:06:37;73681.13;;;-138.15;18.70
20897;BME280;10608;42.600;23.398;2023-08-07T07:09:02;73704.94;;;-138.15;18.89
20897;BME280;10608;42.600;23.398;2023-08-07T07:11:28;74018.22;;;-138.15;18.81
20897;BME280;10608;42.600;23.398;2023-08-07T07:13:53;74117.38;;;-138.15;19.49
20897;BME280;10608;42.600;23.398;2023-08-07T07:16:19;73393.63;;;-138.15;18.39
20897;BME280;10608;42.600;23.398;2023-08-07T07:18:46;73679.16;;;-138.15;18.56
20897;BME280;10608;42.600;23.398;2023-08-07T07:21:12;73167.59;;;-138.15;18.76
20897;BME280;10608;42.600;23.398;2023-08-07T07:23:37;73439.22;;;-138.15;18.01
20897;BME280;10608;42.600;23.398;2023-08-07T07:26:02;73014.94;;;-138.15;17.40
20897;BME280;10608;42.600;23.398;2023-08-07T07:28:28;73288.53;;;-138.15;17.92
20897;BME280;10608;42.600;23.398;2023-08-07T07:30:53;75188.38;;;-138.15;18.99
20897;BME280;10608;42.600;23.398;2023-08-07T07:33:19;75989.84;;;-138.15;20.50
20897;BME280;10608;42.600;23.398;2023-08-07T07:35:44;74732.19;;;-138.15;19.84
20897;BME280;10608;42.600;23.398;2023-08-07T07:38:09;73845.72;;;-138.15;18.05
20897;BME280;10608;42.600;23.398;2023-08-07T07:40:35;73231.03;;;-138.15;18.31
20897;BME280;10608;42.600;23.398;2023-08-07T07:43:01;74635.00;;;-138.15;18.54
20897;BME280;10608;42.600;23.398;2023-08-07T07:45:26;74486.25;;;-138.15;18.93
20897;BME280;10608;42.600;23.398;2023-08-07T07:47:51;73296.47;;;-138.15;18.35
20897;BME280;10608;42.600;23.398;2023-08-07T07:50:17;73966.66;;;-138.15;17.95
20897;BME280;10608;42.600;23.398;2023-08-07T07:52:42;73974.59;;;-138.15;18.62
20897;BME280;10608;42.600;23.398;2023-08-07T07:55:09;73468.97;;;-138.15;17.72
20897;BME280;10608;42.600;23.398;2023-08-07T07:57:35;73070.44;;;-138.15;17.35
20897;BME280;10608;42.600;23.398;2023-08-07T08:00:01;73213.19;;;-138.15;17.74
20897;BME280;10608;42.600;23.398;2023-08-07T08:02:26;73720.78;;;-138.15;17.77
20897;BME280;10608;42.600;23.398;2023-08-07T08:04:51;73558.19;;;-138.15;17.52
20897;BME280;10608;42.600;23.398;2023-08-07T08:07:17;73350.00;;;-138.15;18.03
20897;BME280;10608;42.600;23.398;2023-08-07T08:09:43;73062.53;;;-138.15;17.42
20897;BME280;10608;42.600;23.398;2023-08-07T08:12:08;72495.56;;;-138.15;17.19
20897;BME280;10608;42.600;23.398;2023-08-07T08:14:34;72410.31;;;-138.15;16.82
20897;BME280;10608;42.600;23.398;2023-08-07T08:16:59;73161.66;;;-138.15;17.14
20897;BME280;10608;42.600;23.398;2023-08-07T08:19:25;72866.25;;;-138.15;17.62
20897;BME280;10608;42.600;23.398;2023-08-07T08:21:50;72075.34;;;-138.15;17.57
20897;BME280;10608;42.600;23.398;2023-08-07T08:24:15;71881.09;;;-138.15;17.02
20897;BME280;10608;42.600;23.398;2023-08-07T08:26:41;71704.69;;;-138.15;17.01
20897;BME280;10608;42.600;23.398;2023-08-07T08:29:06;71778.03;;;-138.15;16.77
20897;BME280;10608;42.600;23.398;2023-08-07T08:31:33;72168.50;;;-138.15;16.79
20897;BME280;10608;42.600;23.398;2023-08-07T08:33:59;73427.34;;;-138.15;17.67
20897;BME280;10608;42.600;23.398;2023-08-07T08:36:24;73700.97;;;-138.15;18.15
20897;BME280;10608;42.600;23.398;2023-08-07T08:38:50;73286.56;;;-138.15;17.50
20897;BME280;10608;42.600;23.398;2023-08-07T08:41:16;72727.50;;;-138.15;17.59
20897;BME280;10608;42.600;23.398;2023-08-07T08:43:45;72134.78;;;-138.15;16.87
20897;BME280;10608;42.600;23.398;2023-08-07T08:46:11;73474.91;;;-138.15;17.38
20897;BME280;10608;42.600;23.398;2023-08-07T08:48:40;73468.97;;;-138.15;18.36
20897;BME280;10608;42.600;23.398;2023-08-07T08:51:08;72919.78;;;-138.15;17.77
20897;BME280;10608;42.600;23.398;2023-08-07T08:53:37;74270.09;;;-138.15;18.29
20897;BME280;10608;42.600;23.398;2023-08-07T08:56:02;74914.66;;;-138.15;18.80
20897;BME280;10608;42.600;23.398;2023-08-07T08:58:28;74599.31;;;-138.15;19.25
20897;BME280;10608;42.600;23.398;2023-08-07T09:00:54;75509.75;;;-138.15;19.74
20897;BME280;10608;42.600;23.398;2023-08-07T09:03:20;75789.47;;;-138.15;20.60
20897;BME280;10608;42.600;23.398;2023-08-07T09:05:47;74932.50;;;-138.15;19.18
20897;BME280;10608;42.600;23.398;2023-08-07T09:08:15;74014.25;;;-138.15;18.52
20897;BME280;10608;42.600;23.398;2023-08-07T09:10:41;73161.66;;;-138.15;18.09
20897;BME280;10608;42.600;23.398;2023-08-07T09:13:12;73336.13;;;-138.15;18.05
20897;BME280;10608;42.600;23.398;2023-08-07T09:15:39;72765.16;;;-138.15;17.59
20897;BME280;10608;42.600;23.398;2023-08-07T09:18:06;73677.16;;;-138.15;17.44
20897;BME280;10608;42.600;23.398;2023-08-07T09:20:33;74430.72;;;-138.15;19.26
20897;BME280;10608;42.600;23.398;2023-08-07T09:23:00;74333.53;;;-138.15;18.38
20897;BME280;10608;42.600;23.398;2023-08-07T09:25:32;75045.56;;;-138.15;18.65
20897;BME280;10608;42.600;23.398;2023-08-07T09:28:01;74890.84;;;-138.15;19.38
20897;BME280;10608;42.600;23.398;2023-08-07T09:30:30;74049.97;;;-138.15;18.40
20897;BME280;10608;42.600;23.398;2023-08-07T09:32:59;73332.16;;;-138.15;18.38
20897;BME280;10608;42.600;23.398;2023-08-07T09:35:26;73235.00;;;-138.15;17.29
20897;BME280;10608;42.600;23.398;2023-08-07T09:37:52;73728.72;;;-138.15;17.82
20897;BME280;10608;42.600;23.398;2023-08-07T09:40:18;73673.19;;;-138.15;17.85
20897;BME280;10608;42.600;23.398;2023-08-07T09:42:43;74274.03;;;-138.15;18.74
20897;BME280;10608;42.600;23.398;2023-08-07T09:48:00;72675.94;;;-138.15;17.25
20897;BME280;10608;42.600;23.398;2023-08-07T09:50:25;72521.31;;;-138.15;16.39
20897;BME280;10608;42.600;23.398;2023-08-07T09:52:52;72192.28;;;-138.15;16.61
20897;BME280;10608;42.600;23.398;2023-08-07T09:55:17;71855.34;;;-138.15;16.77
20897;BME280;10608;42.600;23.398;2023-08-07T09:57:43;72408.34;;;-138.15;16.82
20897;BME280;10608;42.600;23.398;2023-08-07T10:00:09;72892.03;;;-138.15;16.74
20897;BME280;10608;42.600;23.398;2023-08-07T10:02:40;73903.22;;;-138.15;17.78
20897;BME280;10608;42.600;23.398;2023-08-07T10:05:06;75426.44;;;-138.15;19.56
20897;BME280;10608;42.600;23.398;2023-08-07T10:07:34;76394.59;;;-138.15;20.37
20897;BME280;10608;42.600;23.398;2023-08-07T10:09:59;77081.19;;;-138.15;21.90
20897;BME280;10608;42.600;23.398;2023-08-07T10:12:28;77577.38;;;-138.15;22.87
20897;BME280;10608;42.600;23.398;2023-08-07T10:14:55;77644.84;;;-138.15;24.36
20897;BME280;10608;42.600;23.398;2023-08-07T10:17:23;77511.88;;;-138.15;24.24
20897;BME280;10608;42.600;23.398;2023-08-07T10:19:51;77813.56;;;-138.15;24.95
20897;BME280;10608;42.600;23.398;2023-08-07T10:22:17;77930.66;;;-138.15;24.63
20897;BME280;10608;42.600;23.398;2023-08-07T10:24:48;77894.94;;;-138.15;24.30
20897;BME280;10608;42.600;23.398;2023-08-07T10:27:16;78071.59;;;-138.15;25.76
20897;BME280;10608;42.600;23.398;2023-08-07T10:29:43;78045.81;;;-138.15;25.20
20897;BME280;10608;42.600;23.398;2023-08-07T10:32:10;77926.69;;;-138.15;25.98
20897;BME280;10608;42.600;23.398;2023-08-07T10:34:39;77773.88;;;-138.15;25.23
20897;BME280;10608;42.600;23.398;2023-08-07T10:37:08;77807.59;;;-138.15;24.98
20897;BME280;10608;42.600;23.398;2023-08-07T10:39:33;77950.53;;;-138.15;24.30
20897;BME280;10608;42.600;23.398;2023-08-07T10:41:59;78196.66;;;-138.15;24.99
20897;BME280;10608;42.600;23.398;2023-08-07T10:44:29;78137.13;;;-138.15;25.02
20897;BME280;10608;42.600;23.398;2023-08-07T10:46:56;78103.38;;;-138.15;24.73
20897;BME280;10608;42.600;23.398;2023-08-07T10:52:20;78095.44;;;-138.15;26.05
20897;BME280;10608;42.600;23.398;2023-08-07T10:54:49;78113.28;;;-138.15;26.16
20897;BME280;10608;42.600;23.398;2023-08-07T10:57:16;77992.22;;;-138.15;26.47
20897;BME280;10608;42.600;23.398;2023-08-07T11:00:06;77843.34;;;-138.15;25.93
20897;BME280;10608;42.600;23.398;2023-08-07T11:02:37;77736.16;;;-138.15;24.48
20897;BME280;10608;42.600;23.398;2023-08-07T11:05:05;77835.41;;;-138.15;24.85
20897;BME280;10608;42.600;23.398;2023-08-07T11:07:30;77980.28;;;-138.15;25.93
20897;BME280;10608;42.600;23.398;2023-08-07T11:09:57;77877.06;;;-138.15;26.13
20897;BME280;10608;42.600;23.398;2023-08-07T11:12:29;77859.22;;;-138.15;24.79
20897;BME280;10608;42.600;23.398;2023-08-07T11:14:55;77974.34;;;-138.15;25.70
20897;BME280;10608;42.600;23.398;2023-08-07T11:17:28;77970.38;;;-138.15;25.45
20897;BME280;10608;42.600;23.398;2023-08-07T11:19:55;77922.72;;;-138.15;24.45
20897;BME280;10608;42.600;23.398;2023-08-07T11:22:20;77775.84;;;-138.15;25.60
20897;BME280;10608;42.600;23.398;2023-08-07T11:24:46;77672.63;;;-138.15;25.38
20897;BME280;10608;42.600;23.398;2023-08-07T11:27:12;77541.63;;;-138.15;25.03
20897;BME280;10608;42.600;23.398;2023-08-07T11:29:37;77563.47;;;-138.15;24.54
20897;BME280;10608;42.600;23.398;2023-08-07T11:32:03;77521.78;;;-138.15;24.49
20897;BME280;10608;42.600;23.398;2023-08-07T11:34:28;77394.75;;;-138.15;23.57
20897;BME280;10608;42.600;23.398;2023-08-07T11:36:54;77501.94;;;-138.15;24.04
20897;BME280;10608;42.600;23.398;2023-08-07T11:39:20;77636.91;;;-138.15;24.93
20897;BME280;10608;42.600;23.398;2023-08-07T11:41:46;77418.59;;;-138.15;23.90
20897;BME280;10608;42.600;23.398;2023-08-07T11:44:12;77291.56;;;-138.15;23.23
20897;BME280;10608;42.600;23.398;2023-08-07T11:46:38;77057.38;;;-138.15;23.82
20897;BME280;10608;42.600;23.398;2023-08-07T11:49:03;76968.06;;;-138.15;23.03
20897;BME280;10608;42.600;23.398;2023-08-07T11:51:30;77116.91;;;-138.15;22.88
20897;BME280;10608;42.600;23.398;2023-08-07T11:53:55;77081.19;;;-138.15;23.10
20897;BME280;10608;42.600;23.398;2023-08-07T11:56:24;77368.97;;;-138.15;23.75
20897;BME280;10608;42.600;23.398;2023-08-07T11:58:51;77501.94;;;-138.15;23.32
20897;BME280;10608;42.600;23.398;2023-08-07T12:01:18;77474.16;;;-138.15;24.24
20897;BME280;10608;42.600;23.398;2023-08-07T12:06:15;77490.03;;;-138.15;24.85
20897;BME280;10608;42.600;23.398;2023-08-07T12:08:41;77474.16;;;-138.15;24.04
20897;BME280;10608;42.600;23.398;2023-08-07T12:11:12;77660.72;;;-138.15;23.93
20897;BME280;10608;42.600;23.398;2023-08-07T12:13:39;77771.88;;;-138.15;25.39
20897;BME280;10608;42.600;23.398;2023-08-07T12:16:06;77559.50;;;-138.15;24.48
20897;BME280;10608;42.600;23.398;2023-08-07T12:18:32;77694.47;;;-138.15;24.72
20897;BME280;10608;42.600;23.398;2023-08-07T12:21:06;77692.47;;;-138.15;24.40
20897;BME280;10608;42.600;23.398;2023-08-07T12:23:33;77756.00;;;-138.15;25.00
20897;BME280;10608;42.600;23.398;2023-08-07T12:25:58;77704.38;;;-138.15;24.83
20897;BME280;10608;42.600;23.398;2023-08-07T12:28:24;77625.00;;;-138.15;24.55
20897;BME280;10608;42.600;23.398;2023-08-07T12:30:51;77585.31;;;-138.15;24.59
20897;BME280;10608;42.600;23.398;2023-08-07T12:33:17;77494.00;;;-138.15;24.31
20897;BME280;10608;42.600;23.398;2023-08-07T12:35:42;77374.91;;;-138.15;23.54